Camp Pendleton MCAS (Munn Field) Airport
KNFG : now visible

Airfield :











YOU CAN JOIN US ON...

 
LOGIN :

Register | Disclaimer

   EN    FR    IT 

 









Legend :    VFR   Marginal VFR   IFR   Intensive IFR   Very Intensive IFR
Visi :
Ceiling :
>= 8 km
>= 3000ft
5 to 8 km
1000 to 3000 ft
1500m to 5 km
500 to 1000 ft
800 to 1500m
200 to 500 ft
< 800m
< 200 ft
Symbols :   Thunderstorms  Fog  Heavy snow  Heavy precipitations  Wind > 20 kt






- Airport Elevation : 78 ft


KNFG - Camp Pendleton MCAS (Munn Field)

CURRENT METAR :
  • 151055Z AUTO 00000KT 10SM BKN023 OVC030 12/09 A2995 RMK AO2 SLP140 T01170094

EXPIRED METARs :
  • 151039Z AUTO 06003KT 10SM FEW023 BKN029 OVC060 12/10 A2995 RMK AO2 T01170100
  • 151013Z AUTO 00000KT 9SM SCT025 BKN033 OVC060 12/09 A2995 RMK AO2 T01170094
  • 150955Z AUTO 00000KT 9SM SCT022 BKN028 OVC037 11/09 A2995 RMK AO2 RAB03E19 SLP141 P0000 T01110094
  • 150919Z AUTO 07004KT 10SM SCT019 BKN024 OVC034 11/09 A2994 RMK AO2 RAB03E19 P0000 T01110094
  • 150855Z AUTO 00000KT 9SM FEW029 SCT034 BKN042 11/09 A2994 RMK AO2 SLP136 T01060089 58000

TAF TAF KNFG
Valid from the 15 at 09:00 until the 16 at 09:00 UTC


1509/1609 VRB05KT 9999 BKN025 OVC035 QNH2987INS
BECMG 1517/1519 27009KT 9999 FEW030 SCT250 QNH2995INS AUTOMATED SENSOR METWATCH 1509 TIL 1614 T07/1513Z T15/1421Z



MET'MAP, your aeronautical weather chart ! - Copyright ORBIFLY December 2007 - Disclaimer

ORBIFLY MET'MAP TEAM :

Programming & Development : Alexandra Zaïnal
Concept & original design : Baudouin d'Aumeries
Assistance for programming : Marc-Olivier Méhu
Technical & hardware support : Manuel Goepfert

Contact : metmap@orbifly.com




SOURCES & CREDITS :

   NOAA       Earth
Advisory